sensor_id;sensor_type;location;lat;lon;timestamp;P1;durP1;ratioP1;P2;durP2;ratioP2
11090;SDS011;5599;52.210;21.046;2022-11-15T00:00:20;18.87;;;16.87;;
11090;SDS011;5599;52.210;21.046;2022-11-15T00:03:18;19.00;;;16.43;;
11090;SDS011;5599;52.210;21.046;2022-11-15T00:06:09;22.20;;;17.50;;
11090;SDS011;5599;52.210;21.046;2022-11-15T00:08:58;22.70;;;18.40;;
11090;SDS011;5599;52.210;21.046;2022-11-15T00:11:47;24.00;;;18.40;;
11090;SDS011;5599;52.210;21.046;2022-11-15T00:14:36;21.40;;;18.73;;
11090;SDS011;5599;52.210;21.046;2022-11-15T00:17:27;21.80;;;19.47;;
11090;SDS011;5599;52.210;21.046;2022-11-15T00:20:18;23.47;;;19.00;;
11090;SDS011;5599;52.210;21.046;2022-11-15T00:23:08;22.47;;;18.23;;
11090;SDS011;5599;52.210;21.046;2022-11-15T00:25:58;23.70;;;19.57;;
11090;SDS011;5599;52.210;21.046;2022-11-15T00:28:57;23.63;;;19.00;;
11090;SDS011;5599;52.210;21.046;2022-11-15T00:31:49;24.53;;;19.80;;
11090;SDS011;5599;52.210;21.046;2022-11-15T00:34:37;23.37;;;19.40;;
11090;SDS011;5599;52.210;21.046;2022-11-15T00:37:27;23.37;;;20.43;;
11090;SDS011;5599;52.210;21.046;2022-11-15T00:40:15;24.73;;;20.53;;
11090;SDS011;5599;52.210;21.046;2022-11-15T00:43:06;24.43;;;19.53;;
11090;SDS011;5599;52.210;21.046;2022-11-15T00:45:58;23.83;;;20.13;;
11090;SDS011;5599;52.210;21.046;2022-11-15T00:48:48;25.43;;;20.60;;
11090;SDS011;5599;52.210;21.046;2022-11-15T00:51:40;25.20;;;21.97;;
11090;SDS011;5599;52.210;21.046;2022-11-15T00:54:30;26.63;;;23.50;;
11090;SDS011;5599;52.210;21.046;2022-11-15T00:57:17;26.90;;;22.77;;
11090;SDS011;5599;52.210;21.046;2022-11-15T01:00:06;27.60;;;22.87;;
11090;SDS011;5599;52.210;21.046;2022-11-15T01:02:54;30.23;;;22.20;;
11090;SDS011;5599;52.210;21.046;2022-11-15T01:05:43;27.50;;;23.03;;
11090;SDS011;5599;52.210;21.046;2022-11-15T01:08:31;26.87;;;22.37;;
11090;SDS011;5599;52.210;21.046;2022-11-15T01:11:21;28.83;;;22.90;;
11090;SDS011;5599;52.210;21.046;2022-11-15T01:14:09;30.70;;;23.97;;
11090;SDS011;5599;52.210;21.046;2022-11-15T01:16:57;28.20;;;24.00;;
11090;SDS011;5599;52.210;21.046;2022-11-15T01:19:45;30.70;;;24.93;;
11090;SDS011;5599;52.210;21.046;2022-11-15T01:22:33;31.37;;;24.03;;
11090;SDS011;5599;52.210;21.046;2022-11-15T01:25:21;30.97;;;25.00;;
11090;SDS011;5599;52.210;21.046;2022-11-15T01:28:11;29.70;;;24.63;;
11090;SDS011;5599;52.210;21.046;2022-11-15T01:31:07;30.67;;;24.57;;
11090;SDS011;5599;52.210;21.046;2022-11-15T01:33:59;30.80;;;25.60;;
11090;SDS011;5599;52.210;21.046;2022-11-15T01:36:50;30.93;;;25.03;;
11090;SDS011;5599;52.210;21.046;2022-11-15T01:39:41;29.77;;;25.53;;
11090;SDS011;5599;52.210;21.046;2022-11-15T01:42:29;34.30;;;24.87;;
11090;SDS011;5599;52.210;21.046;2022-11-15T01:45:19;33.80;;;25.03;;
11090;SDS011;5599;52.210;21.046;2022-11-15T01:48:07;33.57;;;25.57;;
11090;SDS011;5599;52.210;21.046;2022-11-15T01:50:58;33.60;;;25.20;;
11090;SDS011;5599;52.210;21.046;2022-11-15T01:53:49;31.50;;;23.80;;
11090;SDS011;5599;52.210;21.046;2022-11-15T01:56:44;33.73;;;24.87;;
11090;SDS011;5599;52.210;21.046;2022-11-15T01:59:42;32.80;;;26.93;;
11090;SDS011;5599;52.210;21.046;2022-11-15T02:02:43;31.77;;;25.37;;
11090;SDS011;5599;52.210;21.046;2022-11-15T02:05:59;29.83;;;23.80;;
11090;SDS011;5599;52.210;21.046;2022-11-15T02:09:24;36.13;;;25.50;;
11090;SDS011;5599;52.210;21.046;2022-11-15T02:12:13;33.80;;;25.80;;
11090;SDS011;5599;52.210;21.046;2022-11-15T02:15:19;35.93;;;25.47;;
11090;SDS011;5599;52.210;21.046;2022-11-15T02:18:17;31.27;;;24.90;;
11090;SDS011;5599;52.210;21.046;2022-11-15T02:21:18;35.10;;;24.33;;
11090;SDS011;5599;52.210;21.046;2022-11-15T02:24:23;33.30;;;23.93;;
11090;SDS011;5599;52.210;21.046;2022-11-15T02:27:38;37.63;;;25.17;;
11090;SDS011;5599;52.210;21.046;2022-11-15T02:30:56;33.33;;;25.63;;
11090;SDS011;5599;52.210;21.046;2022-11-15T02:33:57;35.23;;;24.60;;
11090;SDS011;5599;52.210;21.046;2022-11-15T02:36:55;31.53;;;23.07;;
11090;SDS011;5599;52.210;21.046;2022-11-15T02:39:54;31.30;;;24.90;;
11090;SDS011;5599;52.210;21.046;2022-11-15T02:42:49;34.43;;;25.53;;
11090;SDS011;5599;52.210;21.046;2022-11-15T02:46:22;34.73;;;24.63;;
11090;SDS011;5599;52.210;21.046;2022-11-15T02:49:32;32.37;;;24.70;;
11090;SDS011;5599;52.210;21.046;2022-11-15T02:52:33;30.43;;;24.00;;
11090;SDS011;5599;52.210;21.046;2022-11-15T02:55:30;33.53;;;25.17;;
11090;SDS011;5599;52.210;21.046;2022-11-15T02:59:08;34.80;;;25.90;;
11090;SDS011;5599;52.210;21.046;2022-11-15T03:02:20;34.20;;;25.13;;
11090;SDS011;5599;52.210;21.046;2022-11-15T03:05:19;34.17;;;25.47;;
11090;SDS011;5599;52.210;21.046;2022-11-15T03:08:17;31.63;;;24.17;;
11090;SDS011;5599;52.210;21.046;2022-11-15T03:11:13;34.27;;;25.43;;
11090;SDS011;5599;52.210;21.046;2022-11-15T03:14:06;35.60;;;26.37;;
11090;SDS011;5599;52.210;21.046;2022-11-15T03:17:03;36.27;;;25.57;;
11090;SDS011;5599;52.210;21.046;2022-11-15T03:20:00;32.93;;;25.87;;
11090;SDS011;5599;52.210;21.046;2022-11-15T03:22:51;35.73;;;26.53;;
11090;SDS011;5599;52.210;21.046;2022-11-15T03:25:46;34.67;;;26.87;;
11090;SDS011;5599;52.210;21.046;2022-11-15T03:28:38;35.70;;;27.20;;
11090;SDS011;5599;52.210;21.046;2022-11-15T03:31:33;37.77;;;27.23;;
11090;SDS011;5599;52.210;21.046;2022-11-15T03:34:39;34.93;;;26.77;;
11090;SDS011;5599;52.210;21.046;2022-11-15T03:37:34;37.50;;;28.63;;
11090;SDS011;5599;52.210;21.046;2022-11-15T03:40:30;36.37;;;27.57;;
11090;SDS011;5599;52.210;21.046;2022-11-15T03:43:39;35.80;;;26.67;;
11090;SDS011;5599;52.210;21.046;2022-11-15T03:46:36;36.03;;;27.93;;
11090;SDS011;5599;52.210;21.046;2022-11-15T03:49:33;40.00;;;28.50;;
11090;SDS011;5599;52.210;21.046;2022-11-15T03:52:24;45.20;;;29.03;;
11090;SDS011;5599;52.210;21.046;2022-11-15T03:55:28;39.30;;;29.33;;
11090;SDS011;5599;52.210;21.046;2022-11-15T03:58:34;39.40;;;28.20;;
11090;SDS011;5599;52.210;21.046;2022-11-15T04:01:23;40.57;;;29.47;;
11090;SDS011;5599;52.210;21.046;2022-11-15T04:04:14;41.53;;;29.70;;
11090;SDS011;5599;52.210;21.046;2022-11-15T04:07:52;37.87;;;28.33;;
11090;SDS011;5599;52.210;21.046;2022-11-15T05:34:01;41.00;;;27.73;;
11090;SDS011;5599;52.210;21.046;2022-11-15T05:36:54;43.33;;;26.37;;
11090;SDS011;5599;52.210;21.046;2022-11-15T05:40:13;40.33;;;26.17;;
11090;SDS011;5599;52.210;21.046;2022-11-15T05:43:29;41.90;;;26.80;;
11090;SDS011;5599;52.210;21.046;2022-11-15T05:46:42;41.03;;;25.73;;
11090;SDS011;5599;52.210;21.046;2022-11-15T05:49:43;39.97;;;26.90;;
11090;SDS011;5599;52.210;21.046;2022-11-15T05:52:44;43.13;;;28.50;;
11090;SDS011;5599;52.210;21.046;2022-11-15T05:55:40;40.80;;;27.27;;
11090;SDS011;5599;52.210;21.046;2022-11-15T05:58:39;42.80;;;27.47;;
11090;SDS011;5599;52.210;21.046;2022-11-15T06:21:40;45.60;;;28.87;;
11090;SDS011;5599;52.210;21.046;2022-11-15T06:24:29;46.10;;;28.43;;
11090;SDS011;5599;52.210;21.046;2022-11-15T06:27:18;49.40;;;29.63;;
11090;SDS011;5599;52.210;21.046;2022-11-15T06:30:10;45.47;;;29.43;;
11090;SDS011;5599;52.210;21.046;2022-11-15T06:32:59;49.47;;;28.27;;
11090;SDS011;5599;52.210;21.046;2022-11-15T06:35:50;47.17;;;28.90;;
11090;SDS011;5599;52.210;21.046;2022-11-15T06:38:38;41.07;;;26.87;;
11090;SDS011;5599;52.210;21.046;2022-11-15T06:41:28;43.67;;;28.00;;
11090;SDS011;5599;52.210;21.046;2022-11-15T06:44:26;43.90;;;28.17;;
11090;SDS011;5599;52.210;21.046;2022-11-15T06:47:31;44.53;;;26.57;;
11090;SDS011;5599;52.210;21.046;2022-11-15T06:50:28;40.83;;;25.80;;
11090;SDS011;5599;52.210;21.046;2022-11-15T07:03:55;42.97;;;25.37;;
11090;SDS011;5599;52.210;21.046;2022-11-15T07:06:46;45.73;;;26.63;;
11090;SDS011;5599;52.210;21.046;2022-11-15T07:09:35;47.60;;;28.80;;
11090;SDS011;5599;52.210;21.046;2022-11-15T07:12:25;42.33;;;26.10;;
11090;SDS011;5599;52.210;21.046;2022-11-15T07:15:15;39.20;;;24.50;;
11090;SDS011;5599;52.210;21.046;2022-11-15T07:18:05;41.20;;;24.80;;
11090;SDS011;5599;52.210;21.046;2022-11-15T07:20:54;39.77;;;24.90;;
11090;SDS011;5599;52.210;21.046;2022-11-15T07:23:42;37.10;;;23.60;;
11090;SDS011;5599;52.210;21.046;2022-11-15T07:26:36;38.00;;;24.87;;
11090;SDS011;5599;52.210;21.046;2022-11-15T07:29:25;36.20;;;23.97;;
11090;SDS011;5599;52.210;21.046;2022-11-15T07:32:16;35.03;;;23.47;;
11090;SDS011;5599;52.210;21.046;2022-11-15T07:35:05;30.30;;;22.47;;
11090;SDS011;5599;52.210;21.046;2022-11-15T07:37:54;28.27;;;21.70;;
11090;SDS011;5599;52.210;21.046;2022-11-15T07:40:43;29.30;;;22.00;;
11090;SDS011;5599;52.210;21.046;2022-11-15T07:43:31;30.53;;;22.07;;
11090;SDS011;5599;52.210;21.046;2022-11-15T07:46:19;32.33;;;22.03;;
11090;SDS011;5599;52.210;21.046;2022-11-15T07:49:12;26.00;;;19.83;;
11090;SDS011;5599;52.210;21.046;2022-11-15T07:52:06;26.23;;;19.60;;
11090;SDS011;5599;52.210;21.046;2022-11-15T07:55:14;26.13;;;19.83;;
11090;SDS011;5599;52.210;21.046;2022-11-15T07:58:05;27.43;;;19.13;;
11090;SDS011;5599;52.210;21.046;2022-11-15T08:00:57;26.90;;;19.83;;
11090;SDS011;5599;52.210;21.046;2022-11-15T08:03:45;30.83;;;19.50;;
11090;SDS011;5599;52.210;21.046;2022-11-15T08:06:35;26.87;;;20.33;;
11090;SDS011;5599;52.210;21.046;2022-11-15T08:09:23;30.33;;;19.90;;
11090;SDS011;5599;52.210;21.046;2022-11-15T08:12:11;25.07;;;20.00;;
11090;SDS011;5599;52.210;21.046;2022-11-15T08:14:59;27.47;;;19.67;;
11090;SDS011;5599;52.210;21.046;2022-11-15T08:17:48;26.43;;;18.97;;
11090;SDS011;5599;52.210;21.046;2022-11-15T08:20:41;25.33;;;19.23;;
11090;SDS011;5599;52.210;21.046;2022-11-15T08:23:32;24.13;;;18.10;;
11090;SDS011;5599;52.210;21.046;2022-11-15T08:26:20;26.87;;;19.47;;
11090;SDS011;5599;52.210;21.046;2022-11-15T08:29:10;26.97;;;19.80;;
11090;SDS011;5599;52.210;21.046;2022-11-15T08:31:59;30.63;;;20.53;;
11090;SDS011;5599;52.210;21.046;2022-11-15T08:34:50;31.80;;;21.73;;
11090;SDS011;5599;52.210;21.046;2022-11-15T08:37:39;31.90;;;22.47;;
11090;SDS011;5599;52.210;21.046;2022-11-15T08:40:29;30.50;;;20.90;;
11090;SDS011;5599;52.210;21.046;2022-11-15T08:43:18;27.93;;;20.37;;
11090;SDS011;5599;52.210;21.046;2022-11-15T08:46:07;27.67;;;21.70;;
11090;SDS011;5599;52.210;21.046;2022-11-15T08:48:58;30.37;;;20.40;;
11090;SDS011;5599;52.210;21.046;2022-11-15T08:51:47;24.40;;;18.23;;
11090;SDS011;5599;52.210;21.046;2022-11-15T08:54:35;28.73;;;19.73;;
11090;SDS011;5599;52.210;21.046;2022-11-15T08:57:27;27.53;;;19.60;;
11090;SDS011;5599;52.210;21.046;2022-11-15T09:00:18;24.77;;;19.07;;
11090;SDS011;5599;52.210;21.046;2022-11-15T09:03:07;27.77;;;20.00;;
11090;SDS011;5599;52.210;21.046;2022-11-15T09:05:56;26.30;;;19.07;;
11090;SDS011;5599;52.210;21.046;2022-11-15T09:08:45;28.73;;;20.37;;
11090;SDS011;5599;52.210;21.046;2022-11-15T09:11:34;32.73;;;20.63;;
11090;SDS011;5599;52.210;21.046;2022-11-15T09:14:25;25.93;;;19.23;;
11090;SDS011;5599;52.210;21.046;2022-11-15T09:17:16;25.63;;;20.27;;
11090;SDS011;5599;52.210;21.046;2022-11-15T09:20:09;25.63;;;18.83;;
11090;SDS011;5599;52.210;21.046;2022-11-15T09:22:59;28.23;;;19.13;;
11090;SDS011;5599;52.210;21.046;2022-11-15T09:25:48;26.17;;;19.93;;
11090;SDS011;5599;52.210;21.046;2022-11-15T09:28:40;29.00;;;19.83;;
11090;SDS011;5599;52.210;21.046;2022-11-15T09:31:30;29.63;;;20.63;;
11090;SDS011;5599;52.210;21.046;2022-11-15T09:34:18;27.50;;;20.67;;
11090;SDS011;5599;52.210;21.046;2022-11-15T09:37:08;31.30;;;21.90;;
11090;SDS011;5599;52.210;21.046;2022-11-15T09:39:57;28.83;;;21.17;;
11090;SDS011;5599;52.210;21.046;2022-11-15T09:42:53;25.10;;;20.23;;
11090;SDS011;5599;52.210;21.046;2022-11-15T09:45:54;31.17;;;21.20;;
11090;SDS011;5599;52.210;21.046;2022-11-15T09:49:04;27.30;;;19.63;;
11090;SDS011;5599;52.210;21.046;2022-11-15T09:51:55;32.03;;;21.47;;
11090;SDS011;5599;52.210;21.046;2022-11-15T09:54:29;30.77;;;21.77;;
11090;SDS011;5599;52.210;21.046;2022-11-15T09:57:24;32.90;;;23.57;;
11090;SDS011;5599;52.210;21.046;2022-11-15T10:00:04;29.17;;;21.27;;
11090;SDS011;5599;52.210;21.046;2022-11-15T10:03:11;32.50;;;21.53;;
11090;SDS011;5599;52.210;21.046;2022-11-15T10:05:48;30.17;;;21.37;;
11090;SDS011;5599;52.210;21.046;2022-11-15T10:08:24;29.83;;;22.00;;
11090;SDS011;5599;52.210;21.046;2022-11-15T10:11:03;29.03;;;21.30;;
11090;SDS011;5599;52.210;21.046;2022-11-15T10:13:56;28.33;;;20.47;;
11090;SDS011;5599;52.210;21.046;2022-11-15T10:19:39;30.70;;;21.67;;
11090;SDS011;5599;52.210;21.046;2022-11-15T10:22:24;33.70;;;21.87;;
11090;SDS011;5599;52.210;21.046;2022-11-15T10:25:01;30.10;;;22.60;;
11090;SDS011;5599;52.210;21.046;2022-11-15T10:27:53;32.60;;;23.63;;
11090;SDS011;5599;52.210;21.046;2022-11-15T10:30:30;31.37;;;22.50;;
11090;SDS011;5599;52.210;21.046;2022-11-15T10:33:11;32.57;;;21.80;;
11090;SDS011;5599;52.210;21.046;2022-11-15T10:35:57;29.10;;;22.33;;
11090;SDS011;5599;52.210;21.046;2022-11-15T10:41:42;29.97;;;22.10;;
11090;SDS011;5599;52.210;21.046;2022-11-15T10:44:17;30.03;;;23.33;;
11090;SDS011;5599;52.210;21.046;2022-11-15T10:47:21;29.97;;;23.93;;
11090;SDS011;5599;52.210;21.046;2022-11-15T10:50:04;29.73;;;22.20;;
11090;SDS011;5599;52.210;21.046;2022-11-15T10:52:36;29.53;;;22.73;;
11090;SDS011;5599;52.210;21.046;2022-11-15T10:55:23;29.23;;;22.07;;
11090;SDS011;5599;52.210;21.046;2022-11-15T10:57:59;28.07;;;21.53;;
11090;SDS011;5599;52.210;21.046;2022-11-15T11:00:33;28.57;;;22.27;;
11090;SDS011;5599;52.210;21.046;2022-11-15T11:03:21;31.97;;;24.17;;
11090;SDS011;5599;52.210;21.046;2022-11-15T11:06:04;24.77;;;20.87;;
11090;SDS011;5599;52.210;21.046;2022-11-15T11:08:36;32.03;;;22.50;;
11090;SDS011;5599;52.210;21.046;2022-11-15T11:11:08;29.30;;;23.27;;
11090;SDS011;5599;52.210;21.046;2022-11-15T11:13:39;29.93;;;22.13;;
11090;SDS011;5599;52.210;21.046;2022-11-15T11:16:21;29.80;;;23.03;;
11090;SDS011;5599;52.210;21.046;2022-11-15T11:19:09;30.77;;;22.57;;
11090;SDS011;5599;52.210;21.046;2022-11-15T11:21:50;29.40;;;22.70;;
11090;SDS011;5599;52.210;21.046;2022-11-15T11:24:28;28.43;;;22.93;;
11090;SDS011;5599;52.210;21.046;2022-11-15T11:27:17;28.43;;;22.70;;
11090;SDS011;5599;52.210;21.046;2022-11-15T11:29:59;29.67;;;23.50;;
11090;SDS011;5599;52.210;21.046;2022-11-15T11:35:27;30.97;;;22.63;;
11090;SDS011;5599;52.210;21.046;2022-11-15T11:38:11;29.87;;;22.93;;
11090;SDS011;5599;52.210;21.046;2022-11-15T11:41:04;29.70;;;23.93;;
11090;SDS011;5599;52.210;21.046;2022-11-15T11:47:20;29.00;;;23.83;;
11090;SDS011;5599;52.210;21.046;2022-11-15T11:49:55;29.03;;;23.67;;
11090;SDS011;5599;52.210;21.046;2022-11-15T11:52:37;30.40;;;24.07;;
11090;SDS011;5599;52.210;21.046;2022-11-15T11:55:28;32.43;;;24.57;;
11090;SDS011;5599;52.210;21.046;2022-11-15T11:58:33;37.57;;;25.67;;
11090;SDS011;5599;52.210;21.046;2022-11-15T12:02:01;32.37;;;24.37;;
11090;SDS011;5599;52.210;21.046;2022-11-15T12:12:43;30.50;;;24.07;;
11090;SDS011;5599;52.210;21.046;2022-11-15T12:15:56;30.77;;;24.97;;
11090;SDS011;5599;52.210;21.046;2022-11-15T12:19:36;34.03;;;24.87;;
11090;SDS011;5599;52.210;21.046;2022-11-15T12:22:44;29.60;;;23.97;;
11090;SDS011;5599;52.210;21.046;2022-11-15T12:26:33;30.60;;;23.70;;
11090;SDS011;5599;52.210;21.046;2022-11-15T12:29:11;31.43;;;25.13;;
11090;SDS011;5599;52.210;21.046;2022-11-15T12:31:45;32.10;;;25.87;;
11090;SDS011;5599;52.210;21.046;2022-11-15T12:34:37;30.67;;;25.37;;
11090;SDS011;5599;52.210;21.046;2022-11-15T12:37:46;32.03;;;24.80;;
11090;SDS011;5599;52.210;21.046;2022-11-15T12:40:28;31.20;;;24.27;;
11090;SDS011;5599;52.210;21.046;2022-11-15T12:49:58;33.67;;;24.93;;
11090;SDS011;5599;52.210;21.046;2022-11-15T12:52:28;32.90;;;27.00;;
11090;SDS011;5599;52.210;21.046;2022-11-15T12:54:59;33.63;;;25.97;;
11090;SDS011;5599;52.210;21.046;2022-11-15T12:57:34;31.03;;;25.50;;
11090;SDS011;5599;52.210;21.046;2022-11-15T13:03:20;34.73;;;25.93;;
11090;SDS011;5599;52.210;21.046;2022-11-15T13:05:58;29.67;;;26.10;;
11090;SDS011;5599;52.210;21.046;2022-11-15T13:08:47;38.13;;;27.70;;
11090;SDS011;5599;52.210;21.046;2022-11-15T13:17:22;34.63;;;26.43;;
11090;SDS011;5599;52.210;21.046;2022-11-15T13:20:20;36.93;;;27.27;;
11090;SDS011;5599;52.210;21.046;2022-11-15T13:23:12;33.30;;;25.70;;
11090;SDS011;5599;52.210;21.046;2022-11-15T13:28:42;32.47;;;27.13;;
11090;SDS011;5599;52.210;21.046;2022-11-15T13:31:36;34.63;;;26.80;;
11090;SDS011;5599;52.210;21.046;2022-11-15T13:34:22;32.27;;;26.63;;
11090;SDS011;5599;52.210;21.046;2022-11-15T13:37:28;35.87;;;29.20;;
11090;SDS011;5599;52.210;21.046;2022-11-15T13:40:22;37.00;;;27.67;;
11090;SDS011;5599;52.210;21.046;2022-11-15T13:42:58;36.00;;;28.37;;
11090;SDS011;5599;52.210;21.046;2022-11-15T13:45:28;35.87;;;28.13;;
11090;SDS011;5599;52.210;21.046;2022-11-15T13:47:58;38.90;;;28.47;;
11090;SDS011;5599;52.210;21.046;2022-11-15T13:50:33;35.67;;;28.07;;
11090;SDS011;5599;52.210;21.046;2022-11-15T13:53:09;41.70;;;29.47;;
11090;SDS011;5599;52.210;21.046;2022-11-15T13:55:41;43.33;;;30.40;;
11090;SDS011;5599;52.210;21.046;2022-11-15T13:58:12;43.53;;;30.67;;
11090;SDS011;5599;52.210;21.046;2022-11-15T14:00:47;44.13;;;32.20;;
11090;SDS011;5599;52.210;21.046;2022-11-15T14:03:27;43.77;;;31.33;;
11090;SDS011;5599;52.210;21.046;2022-11-15T14:06:03;43.10;;;30.47;;
11090;SDS011;5599;52.210;21.046;2022-11-15T14:08:39;47.33;;;32.13;;
11090;SDS011;5599;52.210;21.046;2022-11-15T14:11:14;43.57;;;31.47;;
11090;SDS011;5599;52.210;21.046;2022-11-15T14:14:00;44.43;;;32.63;;
11090;SDS011;5599;52.210;21.046;2022-11-15T14:16:44;45.43;;;32.40;;
11090;SDS011;5599;52.210;21.046;2022-11-15T14:19:35;48.50;;;32.53;;
11090;SDS011;5599;52.210;21.046;2022-11-15T14:22:08;48.37;;;32.20;;
11090;SDS011;5599;52.210;21.046;2022-11-15T14:24:46;42.13;;;30.90;;
11090;SDS011;5599;52.210;21.046;2022-11-15T14:27:35;46.93;;;31.73;;
11090;SDS011;5599;52.210;21.046;2022-11-15T14:30:19;40.53;;;31.20;;
11090;SDS011;5599;52.210;21.046;2022-11-15T14:32:50;42.97;;;31.33;;
11090;SDS011;5599;52.210;21.046;2022-11-15T14:35:24;43.93;;;33.50;;
11090;SDS011;5599;52.210;21.046;2022-11-15T14:37:55;45.07;;;31.50;;
11090;SDS011;5599;52.210;21.046;2022-11-15T14:40:26;45.87;;;32.87;;
11090;SDS011;5599;52.210;21.046;2022-11-15T14:42:57;46.73;;;31.93;;
11090;SDS011;5599;52.210;21.046;2022-11-15T14:45:28;46.97;;;32.73;;
11090;SDS011;5599;52.210;21.046;2022-11-15T14:48:00;50.60;;;34.07;;
11090;SDS011;5599;52.210;21.046;2022-11-15T14:50:30;51.97;;;36.90;;
11090;SDS011;5599;52.210;21.046;2022-11-15T14:53:03;57.87;;;35.67;;
11090;SDS011;5599;52.210;21.046;2022-11-15T14:55:35;52.23;;;35.23;;
11090;SDS011;5599;52.210;21.046;2022-11-15T14:58:07;49.23;;;34.37;;
11090;SDS011;5599;52.210;21.046;2022-11-15T15:00:38;50.73;;;32.83;;
11090;SDS011;5599;52.210;21.046;2022-11-15T15:03:12;49.20;;;34.03;;
11090;SDS011;5599;52.210;21.046;2022-11-15T15:05:43;48.70;;;34.00;;
11090;SDS011;5599;52.210;21.046;2022-11-15T15:08:13;48.33;;;34.93;;
11090;SDS011;5599;52.210;21.046;2022-11-15T15:10:45;53.40;;;33.80;;
11090;SDS011;5599;52.210;21.046;2022-11-15T15:13:21;50.03;;;34.63;;
11090;SDS011;5599;52.210;21.046;2022-11-15T15:15:53;48.97;;;34.80;;
11090;SDS011;5599;52.210;21.046;2022-11-15T15:18:32;56.10;;;33.60;;
11090;SDS011;5599;52.210;21.046;2022-11-15T15:21:19;48.33;;;34.90;;
11090;SDS011;5599;52.210;21.046;2022-11-15T15:23:51;55.13;;;36.13;;
11090;SDS011;5599;52.210;21.046;2022-11-15T15:26:25;53.03;;;34.60;;
11090;SDS011;5599;52.210;21.046;2022-11-15T15:28:57;54.57;;;35.23;;
11090;SDS011;5599;52.210;21.046;2022-11-15T15:31:27;51.77;;;35.17;;
11090;SDS011;5599;52.210;21.046;2022-11-15T15:33:57;51.17;;;33.27;;
11090;SDS011;5599;52.210;21.046;2022-11-15T15:36:27;52.10;;;34.93;;
11090;SDS011;5599;52.210;21.046;2022-11-15T15:38:57;56.67;;;35.67;;
11090;SDS011;5599;52.210;21.046;2022-11-15T15:41:27;53.97;;;35.13;;
11090;SDS011;5599;52.210;21.046;2022-11-15T15:44:05;50.37;;;31.60;;
11090;SDS011;5599;52.210;21.046;2022-11-15T15:46:41;59.10;;;36.57;;
11090;SDS011;5599;52.210;21.046;2022-11-15T15:49:35;56.93;;;33.70;;
11090;SDS011;5599;52.210;21.046;2022-11-15T15:52:35;52.80;;;32.77;;
11090;SDS011;5599;52.210;21.046;2022-11-15T15:55:09;46.97;;;31.70;;
11090;SDS011;5599;52.210;21.046;2022-11-15T15:57:39;50.20;;;31.20;;
11090;SDS011;5599;52.210;21.046;2022-11-15T16:00:11;50.60;;;32.17;;
11090;SDS011;5599;52.210;21.046;2022-11-15T16:02:42;55.57;;;33.93;;
11090;SDS011;5599;52.210;21.046;2022-11-15T16:05:13;53.87;;;32.80;;
11090;SDS011;5599;52.210;21.046;2022-11-15T16:07:43;54.50;;;34.57;;
11090;SDS011;5599;52.210;21.046;2022-11-15T16:10:19;63.23;;;35.73;;
11090;SDS011;5599;52.210;21.046;2022-11-15T16:12:52;56.33;;;37.17;;
11090;SDS011;5599;52.210;21.046;2022-11-15T16:15:26;55.33;;;34.00;;
11090;SDS011;5599;52.210;21.046;2022-11-15T16:18:26;57.67;;;35.00;;
11090;SDS011;5599;52.210;21.046;2022-11-15T16:21:02;54.70;;;35.00;;
11090;SDS011;5599;52.210;21.046;2022-11-15T16:23:33;51.40;;;34.30;;
11090;SDS011;5599;52.210;21.046;2022-11-15T16:26:04;60.20;;;35.63;;
11090;SDS011;5599;52.210;21.046;2022-11-15T16:28:44;58.10;;;34.67;;
11090;SDS011;5599;52.210;21.046;2022-11-15T16:31:15;55.37;;;33.07;;
11090;SDS011;5599;52.210;21.046;2022-11-15T16:33:48;51.57;;;33.20;;
11090;SDS011;5599;52.210;21.046;2022-11-15T16:36:22;59.30;;;33.97;;
11090;SDS011;5599;52.210;21.046;2022-11-15T16:38:57;52.50;;;32.00;;
11090;SDS011;5599;52.210;21.046;2022-11-15T16:41:32;53.67;;;32.77;;
11090;SDS011;5599;52.210;21.046;2022-11-15T16:44:02;48.77;;;30.80;;
11090;SDS011;5599;52.210;21.046;2022-11-15T16:46:34;50.30;;;31.17;;
11090;SDS011;5599;52.210;21.046;2022-11-15T16:49:05;46.23;;;31.27;;
11090;SDS011;5599;52.210;21.046;2022-11-15T16:51:41;46.10;;;31.63;;
11090;SDS011;5599;52.210;21.046;2022-11-15T16:54:12;44.87;;;29.83;;
11090;SDS011;5599;52.210;21.046;2022-11-15T16:56:42;49.97;;;30.97;;
11090;SDS011;5599;52.210;21.046;2022-11-15T16:59:14;46.27;;;31.10;;
11090;SDS011;5599;52.210;21.046;2022-11-15T17:01:48;50.30;;;32.50;;
11090;SDS011;5599;52.210;21.046;2022-11-15T17:04:19;55.93;;;33.77;;
11090;SDS011;5599;52.210;21.046;2022-11-15T17:06:57;51.80;;;32.33;;
11090;SDS011;5599;52.210;21.046;2022-11-15T17:09:33;58.97;;;33.97;;
11090;SDS011;5599;52.210;21.046;2022-11-15T17:12:04;48.60;;;33.70;;
11090;SDS011;5599;52.210;21.046;2022-11-15T17:14:35;58.80;;;36.10;;
11090;SDS011;5599;52.210;21.046;2022-11-15T17:17:12;53.60;;;32.90;;
11090;SDS011;5599;52.210;21.046;2022-11-15T17:19:45;57.00;;;35.43;;
11090;SDS011;5599;52.210;21.046;2022-11-15T17:22:15;55.60;;;34.73;;
11090;SDS011;5599;52.210;21.046;2022-11-15T17:24:46;50.43;;;33.27;;
11090;SDS011;5599;52.210;21.046;2022-11-15T17:27:16;52.57;;;32.53;;
11090;SDS011;5599;52.210;21.046;2022-11-15T17:29:49;46.70;;;30.77;;
11090;SDS011;5599;52.210;21.046;2022-11-15T17:32:22;66.03;;;34.20;;
11090;SDS011;5599;52.210;21.046;2022-11-15T17:34:53;52.50;;;32.13;;
11090;SDS011;5599;52.210;21.046;2022-11-15T17:37:24;52.50;;;31.43;;
11090;SDS011;5599;52.210;21.046;2022-11-15T17:39:54;53.77;;;32.80;;
11090;SDS011;5599;52.210;21.046;2022-11-15T17:42:25;56.87;;;33.17;;
11090;SDS011;5599;52.210;21.046;2022-11-15T17:44:56;65.33;;;35.50;;
11090;SDS011;5599;52.210;21.046;2022-11-15T17:47:35;62.63;;;35.07;;
11090;SDS011;5599;52.210;21.046;2022-11-15T17:50:07;61.47;;;35.07;;
11090;SDS011;5599;52.210;21.046;2022-11-15T17:52:39;63.43;;;35.90;;
11090;SDS011;5599;52.210;21.046;2022-11-15T17:55:10;56.10;;;33.90;;
11090;SDS011;5599;52.210;21.046;2022-11-15T17:57:42;59.30;;;34.77;;
11090;SDS011;5599;52.210;21.046;2022-11-15T18:00:14;54.77;;;32.37;;
11090;SDS011;5599;52.210;21.046;2022-11-15T18:05:35;63.07;;;32.63;;
11090;SDS011;5599;52.210;21.046;2022-11-15T18:08:05;50.67;;;29.77;;
11090;SDS011;5599;52.210;21.046;2022-11-15T18:10:41;48.17;;;28.47;;
11090;SDS011;5599;52.210;21.046;2022-11-15T18:13:11;61.83;;;31.67;;
11090;SDS011;5599;52.210;21.046;2022-11-15T18:15:46;57.73;;;31.73;;
11090;SDS011;5599;52.210;21.046;2022-11-15T18:18:26;55.30;;;30.57;;
11090;SDS011;5599;52.210;21.046;2022-11-15T18:21:01;60.57;;;33.03;;
11090;SDS011;5599;52.210;21.046;2022-11-15T18:23:32;46.33;;;26.53;;
11090;SDS011;5599;52.210;21.046;2022-11-15T18:26:05;49.57;;;27.57;;
11090;SDS011;5599;52.210;21.046;2022-11-15T18:28:37;48.93;;;26.47;;
11090;SDS011;5599;52.210;21.046;2022-11-15T18:31:12;41.67;;;23.87;;
11090;SDS011;5599;52.210;21.046;2022-11-15T18:33:46;44.83;;;25.27;;
11090;SDS011;5599;52.210;21.046;2022-11-15T18:36:17;37.40;;;22.37;;
11090;SDS011;5599;52.210;21.046;2022-11-15T18:38:52;43.27;;;25.07;;
11090;SDS011;5599;52.210;21.046;2022-11-15T18:41:23;41.30;;;25.67;;
11090;SDS011;5599;52.210;21.046;2022-11-15T18:43:56;47.57;;;25.90;;
11090;SDS011;5599;52.210;21.046;2022-11-15T18:46:27;40.20;;;25.50;;